Time;durP1;ratioP1;P1;durP2;ratioP2;P2;SDS_P1;SDS_P2;PMS_P1;PMS_P2;Temp;Humidity;BMP_temperature;BMP_pressure;BME280_temperature;BME280_humidity;BME280_pressure;Samples;Min_cycle;Max_cycle;Signal;HPM_P1;HPM_P2
2023/04/14 00:02:04;;;;;;;6.10;2.90;;;;;;;;;;6276777;22;20007;-79
2023/04/14 00:04:30;;;;;;;5.82;2.78;;;;;;;;;;6276950;22;20082;-79
2023/04/14 00:06:58;;;;;;;6.85;2.92;;;;;;;;;;6275837;22;20000;-79
2023/04/14 00:09:25;;;;;;;5.63;2.72;;;;;;;;;;6277174;22;20004;-79
2023/04/14 00:11:50;;;;;;;5.38;2.78;;;;;;;;;;6273796;22;20064;-79
2023/04/14 00:14:16;;;;;;;5.05;2.80;;;;;;;;;;6276762;22;20584;-79
2023/04/14 00:16:41;;;;;;;6.25;2.78;;;;;;;;;;6273020;22;20003;-78
2023/04/14 00:19:07;;;;;;;7.00;3.17;;;;;;;;;;6274326;22;20027;-79
2023/04/14 00:21:33;;;;;;;6.47;2.90;;;;;;;;;;6276108;22;20007;-79
2023/04/14 00:23:58;;;;;;;6.80;3.03;;;;;;;;;;6274713;22;20012;-79
2023/04/14 00:26:23;;;;;;;5.53;3.08;;;;;;;;;;6274528;22;20006;-79
2023/04/14 00:28:49;;;;;;;5.95;3.20;;;;;;;;;;6271304;22;20034;-76
2023/04/14 00:31:14;;;;;;;6.68;3.17;;;;;;;;;;6271408;22;20003;-79
2023/04/14 00:33:39;;;;;;;6.35;2.95;;;;;;;;;;6273098;22;20000;-79
2023/04/14 00:36:06;;;;;;;6.57;3.35;;;;;;;;;;6275010;22;20013;-79
2023/04/14 00:38:31;;;;;;;6.72;3.47;;;;;;;;;;6273040;22;20004;-79
2023/04/14 00:40:56;;;;;;;6.43;3.08;;;;;;;;;;6272402;22;20015;-79
2023/04/14 00:43:22;;;;;;;5.15;3.03;;;;;;;;;;6271810;22;20000;-79
2023/04/14 00:45:49;;;;;;;7.68;3.20;;;;;;;;;;6273819;22;20023;-79
2023/04/14 00:48:16;;;;;;;6.78;3.10;;;;;;;;;;6272636;22;20004;-79
2023/04/14 00:50:42;;;;;;;7.25;3.10;;;;;;;;;;6272919;22;20091;-79
2023/04/14 00:53:08;;;;;;;6.57;3.22;;;;;;;;;;6269993;22;20061;-78
2023/04/14 00:55:35;;;;;;;6.97;3.30;;;;;;;;;;6270521;22;20008;-79
2023/04/14 00:58:01;;;;;;;7.45;3.67;;;;;;;;;;6272056;22;20007;-78
2023/04/14 01:00:27;;;;;;;6.97;3.10;;;;;;;;;;6270466;22;20014;-79
2023/04/14 01:02:52;;;;;;;6.35;3.20;;;;;;;;;;6274131;22;20448;-79
2023/04/14 01:05:18;;;;;;;6.05;3.45;;;;;;;;;;6273683;22;20006;-79
2023/04/14 01:07:45;;;;;;;6.40;3.20;;;;;;;;;;6270199;22;20026;-79
2023/04/14 01:10:10;;;;;;;5.38;2.90;;;;;;;;;;6273412;22;20011;-79
2023/04/14 01:12:45;;;;;;;7.88;3.33;;;;;;;;;;6248582;22;20012;-79
2023/04/14 01:15:41;;;;;;;6.55;3.05;;;;;;;;;;6272854;22;20016;-79
2023/04/14 01:18:33;;;;;;;5.85;2.97;;;;;;;;;;6274280;22;20012;-79
2023/04/14 01:21:07;;;;;;;6.38;2.65;;;;;;;;;;6272272;22;20012;-79
2023/04/14 01:23:40;;;;;;;5.75;2.88;;;;;;;;;;6275714;22;20474;-79
2023/04/14 01:26:14;;;;;;;7.47;2.80;;;;;;;;;;6276039;22;20004;-79
2023/04/14 01:29:02;;;;;;;6.13;3.47;;;;;;;;;;6274629;22;20000;-79
2023/04/14 01:31:46;;;;;;;7.25;2.85;;;;;;;;;;6274266;22;20426;-79
2023/04/14 01:34:16;;;;;;;7.68;3.17;;;;;;;;;;6273427;22;20010;-79
2023/04/14 01:36:52;;;;;;;7.47;2.83;;;;;;;;;;6275973;22;19995;-79
2023/04/14 01:39:21;;;;;;;6.05;2.88;;;;;;;;;;6275506;22;20330;-79
2023/04/14 01:41:51;;;;;;;6.03;3.05;;;;;;;;;;6272972;22;20457;-79
2023/04/14 01:44:18;;;;;;;7.60;3.08;;;;;;;;;;6273681;22;20007;-78
2023/04/14 01:46:45;;;;;;;6.45;3.00;;;;;;;;;;6271977;22;20004;-79
2023/04/14 01:49:11;;;;;;;6.90;3.00;;;;;;;;;;6270203;22;20016;-79
2023/04/14 01:51:39;;;;;;;8.27;3.35;;;;;;;;;;6270916;22;20007;-78
2023/04/14 01:54:08;;;;;;;5.38;2.50;;;;;;;;;;6270359;22;20349;-79
2023/04/14 01:56:36;;;;;;;6.35;2.70;;;;;;;;;;6270080;22;20450;-79
2023/04/14 01:59:02;;;;;;;6.43;2.70;;;;;;;;;;6269879;22;20435;-79
2023/04/14 02:01:29;;;;;;;7.70;2.58;;;;;;;;;;6273042;22;20035;-78
2023/04/14 02:03:54;;;;;;;6.57;2.53;;;;;;;;;;6273310;22;20007;-79
2023/04/14 02:06:21;;;;;;;7.35;3.10;;;;;;;;;;6273068;22;20014;-79
2023/04/14 02:08:47;;;;;;;7.25;3.00;;;;;;;;;;6270693;22;20035;-78
2023/04/14 02:11:14;;;;;;;5.47;2.55;;;;;;;;;;6271836;22;20139;-79
2023/04/14 02:13:41;;;;;;;4.90;2.50;;;;;;;;;;6273024;22;20082;-79
2023/04/14 02:16:09;;;;;;;7.47;2.40;;;;;;;;;;6271846;22;20430;-79
2023/04/14 02:18:36;;;;;;;6.15;2.90;;;;;;;;;;6273391;22;20007;-79
2023/04/14 02:21:02;;;;;;;4.97;2.70;;;;;;;;;;6270369;22;20008;-77
2023/04/14 02:23:28;;;;;;;6.93;2.80;;;;;;;;;;6264694;22;20077;-78
2023/04/14 02:26:03;;;;;;;4.50;2.33;;;;;;;;;;6272290;22;20011;-79
2023/04/14 02:28:32;;;;;;;4.97;2.83;;;;;;;;;;6271981;22;20046;-79
2023/04/14 02:31:02;;;;;;;5.82;2.92;;;;;;;;;;6270698;22;20514;-79
2023/04/14 02:33:33;;;;;;;7.80;2.80;;;;;;;;;;6272148;22;20364;-79
2023/04/14 02:36:05;;;;;;;5.85;2.70;;;;;;;;;;6274474;22;20333;-79
2023/04/14 02:38:44;;;;;;;6.55;2.83;;;;;;;;;;6269632;22;20007;-77
2023/04/14 02:41:21;;;;;;;6.35;2.58;;;;;;;;;;6272552;22;20035;-78
2023/04/14 02:43:54;;;;;;;6.45;3.00;;;;;;;;;;6272728;22;20399;-78
2023/04/14 02:46:20;;;;;;;;;;;;;;;;;;6270038;22;20023;-79
2023/04/14 02:48:47;;;;;;;6.50;2.40;;;;;;;;;;6268824;22;20293;-78
2023/04/14 02:51:16;;;;;;;7.88;3.10;;;;;;;;;;6270490;22;20057;-78
2023/04/14 02:53:42;;;;;;;7.43;2.80;;;;;;;;;;6271364;22;20090;-79
2023/04/14 02:56:08;;;;;;;8.88;2.83;;;;;;;;;;6271759;22;20116;-78
2023/04/14 02:58:33;;;;;;;5.78;2.70;;;;;;;;;;6271209;22;20438;-79
2023/04/14 03:00:59;;;;;;;4.75;2.50;;;;;;;;;;6270546;22;20038;-79
2023/04/14 03:03:27;;;;;;;5.93;2.85;;;;;;;;;;6271176;22;20452;-79
2023/04/14 03:05:52;;;;;;;7.30;3.00;;;;;;;;;;6272473;22;19999;-78
2023/04/14 03:08:19;;;;;;;7.28;3.03;;;;;;;;;;6270617;22;19999;-78
2023/04/14 03:10:47;;;;;;;8.20;3.63;;;;;;;;;;6272944;22;20060;-79
2023/04/14 03:13:13;;;;;;;6.70;2.80;;;;;;;;;;6269902;22;20052;-77
2023/04/14 03:15:40;;;;;;;7.35;3.28;;;;;;;;;;6273436;22;20022;-79
2023/04/14 03:18:05;;;;;;;5.88;2.67;;;;;;;;;;6272074;22;20087;-79
2023/04/14 03:20:32;;;;;;;10.05;2.90;;;;;;;;;;6272647;22;20042;-79
2023/04/14 03:23:04;;;;;;;7.93;2.58;;;;;;;;;;6272243;22;20050;-79
2023/04/14 03:25:33;;;;;;;6.07;2.55;;;;;;;;;;6273419;22;20426;-79
2023/04/14 03:28:02;;;;;;;8.60;2.58;;;;;;;;;;6274351;22;20062;-79
2023/04/14 03:30:30;;;;;;;4.35;2.38;;;;;;;;;;6273676;22;20371;-79
2023/04/14 03:33:00;;;;;;;5.50;2.28;;;;;;;;;;6274449;22;20315;-79
2023/04/14 03:35:27;;;;;;;8.35;2.58;;;;;;;;;;6272587;22;20000;-79
2023/04/14 03:37:58;;;;;;;4.15;2.00;;;;;;;;;;6274517;22;20074;-79
2023/04/14 03:40:29;;;;;;;4.22;2.10;;;;;;;;;;6274077;22;20000;-79
2023/04/14 03:42:57;;;;;;;5.90;2.45;;;;;;;;;;6271361;22;19999;-79
2023/04/14 03:45:23;;;;;;;9.45;2.58;;;;;;;;;;6270471;22;20039;-79
2023/04/14 03:47:48;;;;;;;5.10;2.20;;;;;;;;;;6272339;22;20076;-77
2023/04/14 03:50:17;;;;;;;6.40;2.53;;;;;;;;;;6271452;22;20349;-79
2023/04/14 03:52:45;;;;;;;4.35;2.20;;;;;;;;;;6269087;22;20003;-79
2023/04/14 03:55:11;;;;;;;5.38;2.28;;;;;;;;;;6268326;22;20007;-79
2023/04/14 03:57:38;;;;;;;7.15;2.55;;;;;;;;;;6269235;22;20347;-79
2023/04/14 04:00:07;;;;;;;6.03;2.25;;;;;;;;;;6270237;22;20042;-77
2023/04/14 04:02:33;;;;;;;5.32;2.20;;;;;;;;;;6270475;22;20034;-79
2023/04/14 04:05:00;;;;;;;5.38;2.10;;;;;;;;;;6269341;22;20056;-79
2023/04/14 04:07:26;;;;;;;8.02;3.05;;;;;;;;;;6271839;22;20027;-79
2023/04/14 04:09:52;;;;;;;7.68;2.33;;;;;;;;;;6268439;22;20000;-79
2023/04/14 04:12:19;;;;;;;6.32;2.45;;;;;;;;;;6271237;22;20008;-79
2023/04/14 04:14:44;;;;;;;6.20;2.30;;;;;;;;;;6270380;22;20010;-79
2023/04/14 04:17:13;;;;;;;5.28;2.67;;;;;;;;;;6267585;22;20011;-76
2023/04/14 04:19:42;;;;;;;7.70;2.42;;;;;;;;;;6271262;22;20003;-78
2023/04/14 04:22:10;;;;;;;5.32;1.85;;;;;;;;;;6275098;22;20031;-79
2023/04/14 04:24:39;;;;;;;5.38;2.13;;;;;;;;;;6271953;22;20089;-79
2023/04/14 04:27:05;;;;;;;7.65;2.33;;;;;;;;;;6270266;22;20003;-79
2023/04/14 04:29:31;;;;;;;5.88;2.25;;;;;;;;;;6274106;22;20011;-78
2023/04/14 04:31:56;;;;;;;6.43;2.45;;;;;;;;;;6273245;22;20007;-77
2023/04/14 04:34:23;;;;;;;6.97;2.80;;;;;;;;;;6273260;22;20010;-79
2023/04/14 04:36:49;;;;;;;6.38;2.90;;;;;;;;;;6272793;22;20033;-77
2023/04/14 04:39:14;;;;;;;8.23;2.55;;;;;;;;;;6272330;22;20397;-79
2023/04/14 04:41:40;;;;;;;7.80;2.45;;;;;;;;;;6270878;22;20008;-78
2023/04/14 04:44:05;;;;;;;5.72;2.80;;;;;;;;;;6274108;22;20083;-79
2023/04/14 04:46:53;;;;;;;8.27;2.90;;;;;;;;;;6273178;22;20416;-79
2023/04/14 04:49:19;;;;;;;5.45;2.35;;;;;;;;;;6273087;22;20422;-79
2023/04/14 04:51:44;;;;;;;9.02;2.92;;;;;;;;;;6270390;22;20074;-79
2023/04/14 04:54:09;;;;;;;7.65;2.53;;;;;;;;;;6269014;22;20065;-79
2023/04/14 04:56:35;;;;;;;6.18;2.63;;;;;;;;;;6273238;22;20110;-79
2023/04/14 04:59:01;;;;;;;5.47;2.25;;;;;;;;;;6271768;22;20000;-79
2023/04/14 05:01:26;;;;;;;6.35;2.17;;;;;;;;;;6245108;22;20108;-79
2023/04/14 05:03:52;;;;;;;5.43;2.22;;;;;;;;;;6272173;22;20004;-79
2023/04/14 05:06:17;;;;;;;9.02;2.75;;;;;;;;;;6270598;22;20004;-79
2023/04/14 05:08:43;;;;;;;4.90;2.30;;;;;;;;;;6269636;22;20049;-79
2023/04/14 05:11:08;;;;;;;6.15;2.45;;;;;;;;;;6273929;22;20019;-79
2023/04/14 05:13:34;;;;;;;7.82;2.88;;;;;;;;;;6270497;22;20012;-80
2023/04/14 05:16:03;;;;;;;4.18;2.28;;;;;;;;;;6271395;22;20441;-78
2023/04/14 05:18:29;;;;;;;5.35;2.33;;;;;;;;;;6272977;22;20010;-79
2023/04/14 05:20:55;;;;;;;4.75;2.30;;;;;;;;;;6272038;22;19999;-79
2023/04/14 05:23:20;;;;;;;7.68;2.45;;;;;;;;;;6273218;22;20031;-79
2023/04/14 05:25:46;;;;;;;6.68;2.55;;;;;;;;;;6272149;22;20333;-78
2023/04/14 05:28:13;;;;;;;5.45;2.22;;;;;;;;;;6274752;22;20000;-79
2023/04/14 05:30:38;;;;;;;4.70;2.35;;;;;;;;;;6273714;22;20008;-79
2023/04/14 05:33:04;;;;;;;6.53;2.25;;;;;;;;;;6276004;22;20401;-79
2023/04/14 05:35:29;;;;;;;5.53;2.60;;;;;;;;;;6273331;22;20426;-79
2023/04/14 05:37:55;;;;;;;6.80;2.88;;;;;;;;;;6273732;22;20437;-79
2023/04/14 05:40:21;;;;;;;7.35;2.92;;;;;;;;;;6274404;22;20392;-79
2023/04/14 05:42:46;;;;;;;6.50;2.50;;;;;;;;;;6275643;22;20003;-75
2023/04/14 05:45:12;;;;;;;7.05;2.30;;;;;;;;;;6273527;22;20385;-75
2023/04/14 05:47:38;;;;;;;5.55;2.75;;;;;;;;;;6275322;22;20315;-76
2023/04/14 05:50:05;;;;;;;5.32;2.75;;;;;;;;;;6272780;22;20384;-75
2023/04/14 05:52:30;;;;;;;5.78;2.63;;;;;;;;;;6274523;22;20004;-75
2023/04/14 05:54:56;;;;;;;7.32;2.92;;;;;;;;;;6276185;22;20081;-75
2023/04/14 05:57:21;;;;;;;6.65;3.03;;;;;;;;;;6273533;22;20015;-76
2023/04/14 05:59:46;;;;;;;5.68;2.60;;;;;;;;;;6271169;22;20012;-74
2023/04/14 06:02:12;;;;;;;4.35;2.30;;;;;;;;;;6273673;22;20034;-75
2023/04/14 06:04:37;;;;;;;5.00;2.47;;;;;;;;;;6274152;22;20380;-75
2023/04/14 06:07:03;;;;;;;4.93;2.47;;;;;;;;;;6273813;22;20395;-75
2023/04/14 06:09:28;;;;;;;7.00;2.65;;;;;;;;;;6273079;22;20007;-75
2023/04/14 06:11:53;;;;;;;8.95;2.60;;;;;;;;;;6273297;22;20007;-75
2023/04/14 06:14:19;;;;;;;5.15;2.47;;;;;;;;;;6274144;22;20307;-75
2023/04/14 06:16:45;;;;;;;6.82;2.50;;;;;;;;;;6271078;22;20418;-75
2023/04/14 06:19:10;;;;;;;7.40;2.70;;;;;;;;;;6273324;22;20012;-75
2023/04/14 06:21:35;;;;;;;6.53;2.83;;;;;;;;;;6267872;22;20008;-75
2023/04/14 06:24:01;;;;;;;8.95;2.97;;;;;;;;;;6273508;22;20008;-75
2023/04/14 06:26:26;;;;;;;7.70;3.00;;;;;;;;;;6272235;22;20011;-75
2023/04/14 06:28:52;;;;;;;8.00;2.95;;;;;;;;;;6270933;22;20007;-75
2023/04/14 06:31:18;;;;;;;6.93;2.60;;;;;;;;;;6271149;22;20014;-75
2023/04/14 06:33:43;;;;;;;6.00;2.60;;;;;;;;;;6270390;22;20478;-74
2023/04/14 06:36:08;;;;;;;6.53;2.50;;;;;;;;;;6274913;22;20373;-75
2023/04/14 06:38:34;;;;;;;8.10;2.83;;;;;;;;;;6274380;22;20004;-75
2023/04/14 06:40:59;;;;;;;6.57;2.78;;;;;;;;;;6269717;22;20011;-75
2023/04/14 06:43:25;;;;;;;7.32;2.97;;;;;;;;;;6270989;22;20008;-75
2023/04/14 06:45:50;;;;;;;5.28;2.80;;;;;;;;;;6273753;22;20056;-75
2023/04/14 06:48:16;;;;;;;5.07;2.50;;;;;;;;;;6274773;22;20072;-75
2023/04/14 06:50:41;;;;;;;5.18;2.30;;;;;;;;;;6275388;22;20010;-75
2023/04/14 06:53:08;;;;;;;8.00;2.58;;;;;;;;;;6271466;22;20015;-75
2023/04/14 06:55:35;;;;;;;7.55;2.72;;;;;;;;;;6272666;22;20319;-75
2023/04/14 06:58:00;;;;;;;6.75;2.60;;;;;;;;;;6274489;22;20530;-74
2023/04/14 07:00:26;;;;;;;7.07;2.60;;;;;;;;;;6276074;22;20011;-75
2023/04/14 07:02:51;;;;;;;6.80;3.08;;;;;;;;;;6276057;22;20014;-75
2023/04/14 07:05:17;;;;;;;8.32;3.28;;;;;;;;;;6274849;22;20008;-75
2023/04/14 07:07:42;;;;;;;6.70;3.30;;;;;;;;;;6274609;22;20006;-74
2023/04/14 07:10:08;;;;;;;7.68;3.00;;;;;;;;;;6274071;22;20004;-75
2023/04/14 07:12:33;;;;;;;8.55;3.10;;;;;;;;;;6273344;22;20015;-75
2023/04/14 07:14:59;;;;;;;9.07;3.13;;;;;;;;;;6276900;22;20008;-75
2023/04/14 07:17:24;;;;;;;6.63;3.00;;;;;;;;;;6276987;22;20000;-75
2023/04/14 07:19:49;;;;;;;6.22;2.88;;;;;;;;;;6274533;22;20018;-76
2023/04/14 07:22:15;;;;;;;10.75;2.97;;;;;;;;;;6275336;22;20330;-75
2023/04/14 07:24:41;;;;;;;5.32;2.50;;;;;;;;;;6276932;22;20010;-75
2023/04/14 07:27:07;;;;;;;7.00;2.38;;;;;;;;;;6278433;22;20345;-75
2023/04/14 07:29:33;;;;;;;5.38;2.30;;;;;;;;;;6272772;22;20379;-75
2023/04/14 07:31:59;;;;;;;5.80;2.38;;;;;;;;;;6273979;22;20070;-75
2023/04/14 07:34:24;;;;;;;7.13;2.63;;;;;;;;;;6274180;22;20003;-75
2023/04/14 07:36:50;;;;;;;9.95;2.55;;;;;;;;;;6274583;22;20031;-75
2023/04/14 07:39:15;;;;;;;9.93;2.97;;;;;;;;;;6275855;22;20099;-76
2023/04/14 07:41:41;;;;;;;8.32;2.75;;;;;;;;;;6274710;22;20042;-75
2023/04/14 07:44:06;;;;;;;4.68;2.53;;;;;;;;;;6272423;22;20016;-76
2023/04/14 07:46:32;;;;;;;9.23;2.65;;;;;;;;;;6275267;22;20026;-75
2023/04/14 07:48:58;;;;;;;5.93;2.33;;;;;;;;;;6278434;22;20312;-75
2023/04/14 07:51:23;;;;;;;8.98;2.50;;;;;;;;;;6275714;22;20659;-75
2023/04/14 07:53:49;;;;;;;6.15;2.35;;;;;;;;;;6273559;22;20008;-75
2023/04/14 07:56:15;;;;;;;5.03;2.10;;;;;;;;;;6279260;22;20075;-75
2023/04/14 07:58:40;;;;;;;6.07;2.10;;;;;;;;;;6275544;22;20010;-75
2023/04/14 08:01:06;;;;;;;6.40;2.30;;;;;;;;;;6277874;22;20008;-75
2023/04/14 08:03:32;;;;;;;6.85;2.40;;;;;;;;;;6276277;22;20006;-79
2023/04/14 08:05:57;;;;;;;4.95;2.20;;;;;;;;;;6275044;22;20004;-80
2023/04/14 08:08:23;;;;;;;5.60;1.92;;;;;;;;;;6274364;22;20434;-80
2023/04/14 08:10:49;;;;;;;7.15;2.28;;;;;;;;;;6273002;22;20075;-80
2023/04/14 08:13:14;;;;;;;5.68;1.95;;;;;;;;;;6273102;22;20031;-80
2023/04/14 08:15:39;;;;;;;6.32;1.90;;;;;;;;;;6275216;22;20015;-79
2023/04/14 08:18:05;;;;;;;4.35;1.85;;;;;;;;;;6274121;22;20012;-79
2023/04/14 08:20:30;;;;;;;6.05;2.00;;;;;;;;;;6275073;22;20022;-80
2023/04/14 08:22:56;;;;;;;5.70;1.98;;;;;;;;;;6274825;22;20483;-79
2023/04/14 08:25:21;;;;;;;6.45;1.80;;;;;;;;;;6275311;22;20007;-80
2023/04/14 08:27:47;;;;;;;6.45;2.13;;;;;;;;;;6273137;22;20010;-79
2023/04/14 08:30:12;;;;;;;7.00;2.10;;;;;;;;;;6274963;22;20413;-79
2023/04/14 08:32:38;;;;;;;7.15;1.88;;;;;;;;;;6275608;22;20007;-79
2023/04/14 08:35:03;;;;;;;6.75;1.85;;;;;;;;;;6275500;22;20004;-80
2023/04/14 08:37:29;;;;;;;4.13;1.75;;;;;;;;;;6276566;22;20007;-79
2023/04/14 08:39:54;;;;;;;6.75;1.67;;;;;;;;;;6271953;22;20023;-80
2023/04/14 08:42:20;;;;;;;4.20;1.38;;;;;;;;;;6275184;22;20011;-79
2023/04/14 08:44:47;;;;;;;6.75;1.80;;;;;;;;;;6274846;22;20060;-80
2023/04/14 08:47:13;;;;;;;6.65;1.65;;;;;;;;;;6273867;22;20014;-80
2023/04/14 08:49:53;;;;;;;6.15;1.63;;;;;;;;;;6271356;22;20315;-80
2023/04/14 08:52:22;;;;;;;4.15;1.25;;;;;;;;;;6275839;22;20337;-80
2023/04/14 08:54:49;;;;;;;3.97;1.55;;;;;;;;;;6273333;22;20014;-80
2023/04/14 08:57:18;;;;;;;4.57;1.70;;;;;;;;;;6272936;22;20373;-80
2023/04/14 08:59:44;;;;;;;4.88;1.73;;;;;;;;;;6274135;22;20027;-80
2023/04/14 09:02:10;;;;;;;6.15;1.67;;;;;;;;;;6274481;22;20004;-80
2023/04/14 09:04:36;;;;;;;4.20;1.40;;;;;;;;;;6274179;22;20628;-79
2023/04/14 09:07:01;;;;;;;8.05;2.00;;;;;;;;;;6272034;22;20011;-80
2023/04/14 09:09:29;;;;;;;4.05;1.70;;;;;;;;;;6271743;22;20422;-80
2023/04/14 09:11:55;;;;;;;5.20;1.98;;;;;;;;;;6271043;22;20006;-79
2023/04/14 09:14:21;;;;;;;7.20;1.83;;;;;;;;;;6274059;22;20010;-77
2023/04/14 09:16:47;;;;;;;5.90;1.90;;;;;;;;;;6274591;22;20430;-79
2023/04/14 09:19:14;;;;;;;6.55;2.00;;;;;;;;;;6272588;22;19999;-79
2023/04/14 09:21:40;;;;;;;5.15;1.60;;;;;;;;;;6272210;22;20011;-80
2023/04/14 09:24:06;;;;;;;3.92;1.58;;;;;;;;;;6271311;22;20007;-80
2023/04/14 09:26:32;;;;;;;6.43;1.52;;;;;;;;;;6273149;22;20097;-80
2023/04/14 09:28:57;;;;;;;3.58;1.38;;;;;;;;;;6269542;22;19995;-80
2023/04/14 09:31:23;;;;;;;5.28;1.50;;;;;;;;;;6272122;22;20004;-80
2023/04/14 09:33:49;;;;;;;4.95;1.48;;;;;;;;;;6271830;22;20442;-80
2023/04/14 09:36:23;;;;;;;5.28;1.40;;;;;;;;;;6273945;22;20008;-79
2023/04/14 09:38:50;;;;;;;4.78;1.42;;;;;;;;;;6269789;22;20090;-79
2023/04/14 09:41:24;;;;;;;4.20;1.05;;;;;;;;;;6271444;22;20008;-79
2023/04/14 09:43:51;;;;;;;5.88;1.70;;;;;;;;;;6273671;22;20387;-80
2023/04/14 09:46:17;;;;;;;2.70;1.20;;;;;;;;;;6270787;22;20038;-80
2023/04/14 09:48:54;;;;;;;4.65;1.40;;;;;;;;;;6272845;22;20007;-81
2023/04/14 09:51:37;;;;;;;4.35;1.25;;;;;;;;;;6274903;22;20026;-81
2023/04/14 09:54:03;;;;;;;4.63;1.50;;;;;;;;;;6272849;22;20418;-80
2023/04/14 09:56:28;;;;;;;4.65;1.20;;;;;;;;;;6268668;22;20059;-80
2023/04/14 09:58:58;;;;;;;3.80;1.23;;;;;;;;;;6272502;22;20083;-80
2023/04/14 10:01:28;;;;;;;5.82;1.65;;;;;;;;;;6270524;22;20007;-79
2023/04/14 10:03:54;;;;;;;4.22;1.13;;;;;;;;;;6272150;22;19999;-80
2023/04/14 10:06:21;;;;;;;4.07;1.25;;;;;;;;;;6274350;22;20372;-80
2023/04/14 10:08:51;;;;;;;3.28;1.40;;;;;;;;;;6273448;22;20073;-80
2023/04/14 10:11:21;;;;;;;8.00;1.88;;;;;;;;;;6273767;22;20015;-80
2023/04/14 10:14:00;;;;;;;5.30;1.40;;;;;;;;;;6275303;22;20000;-80
2023/04/14 10:16:26;;;;;;;9.05;1.88;;;;;;;;;;6274288;22;20011;-80
2023/04/14 10:18:52;;;;;;;5.28;1.40;;;;;;;;;;6272319;22;20015;-79
2023/04/14 10:21:21;;;;;;;3.00;1.38;;;;;;;;;;6273084;22;20042;-79
2023/04/14 10:23:47;;;;;;;5.38;1.33;;;;;;;;;;6274153;22;20430;-79
2023/04/14 10:26:12;;;;;;;4.15;1.33;;;;;;;;;;6273878;22;20015;-80
2023/04/14 10:28:41;;;;;;;5.63;1.20;;;;;;;;;;6269706;22;20031;-81
2023/04/14 10:31:30;;;;;;;4.53;1.30;;;;;;;;;;6274811;22;20007;-81
2023/04/14 10:33:56;;;;;;;4.45;1.15;;;;;;;;;;6263111;22;20342;-80
2023/04/14 10:36:27;;;;;;;2.47;1.08;;;;;;;;;;6272085;22;20007;-80
2023/04/14 10:39:00;;;;;;;5.07;1.50;;;;;;;;;;6271867;22;20073;-81
2023/04/14 10:41:26;;;;;;;3.72;1.15;;;;;;;;;;6272858;22;20011;-81
2023/04/14 10:43:52;;;;;;;4.80;1.13;;;;;;;;;;6275036;22;20007;-80
2023/04/14 10:46:17;;;;;;;4.47;1.25;;;;;;;;;;6271539;22;20007;-80
2023/04/14 10:48:45;;;;;;;3.75;1.25;;;;;;;;;;6274363;22;20087;-80
2023/04/14 10:51:11;;;;;;;3.30;1.10;;;;;;;;;;6275114;22;20030;-80
2023/04/14 10:53:49;;;;;;;4.72;1.58;;;;;;;;;;6271944;22;20007;-80
2023/04/14 10:56:14;;;;;;;4.30;1.25;;;;;;;;;;6272084;22;20019;-80
2023/04/14 10:58:40;;;;;;;4.32;0.93;;;;;;;;;;6268330;22;20007;-79
2023/04/14 11:01:29;;;;;;;3.65;1.02;;;;;;;;;;6270892;22;20015;-80
2023/04/14 11:03:55;;;;;;;3.65;0.90;;;;;;;;;;6274502;22;20524;-81
2023/04/14 11:06:46;;;;;;;4.20;1.27;;;;;;;;;;6271833;22;20011;-81
2023/04/14 11:09:41;;;;;;;6.53;1.15;;;;;;;;;;6272784;22;20330;-81
2023/04/14 11:12:23;;;;;;;3.20;0.93;;;;;;;;;;6251322;22;20008;-81
2023/04/14 11:14:54;;;;;;;4.73;1.07;;;;;;;;;;6274402;22;20082;-81
2023/04/14 11:17:23;;;;;;;3.80;1.10;;;;;;;;;;6275170;22;20236;-80
2023/04/14 11:19:54;;;;;;;3.58;1.10;;;;;;;;;;6272774;22;20003;-80
2023/04/14 11:22:40;;;;;;;3.45;0.90;;;;;;;;;;6273672;22;20082;-81
2023/04/14 11:25:15;;;;;;;4.22;1.20;;;;;;;;;;6273085;22;20426;-81
2023/04/14 11:27:42;;;;;;;5.50;1.20;;;;;;;;;;6274733;22;20070;-80
2023/04/14 11:30:13;;;;;;;4.82;1.10;;;;;;;;;;6273562;22;20004;-80
2023/04/14 11:32:52;;;;;;;4.78;0.80;;;;;;;;;;6269617;22;20358;-79
2023/04/14 11:35:22;;;;;;;3.67;1.10;;;;;;;;;;6270575;22;20460;-80
2023/04/14 11:37:48;;;;;;;4.10;0.90;;;;;;;;;;6274200;22;20098;-80
2023/04/14 11:40:14;;;;;;;1.90;0.70;;;;;;;;;;6268015;22;20015;-80
2023/04/14 11:42:45;;;;;;;3.35;0.85;;;;;;;;;;6272298;22;20003;-81
2023/04/14 11:45:14;;;;;;;6.30;1.20;;;;;;;;;;6272953;22;20004;-78
2023/04/14 11:47:40;;;;;;;2.70;0.65;;;;;;;;;;6273909;22;20004;-81
2023/04/14 11:50:06;;;;;;;3.65;0.77;;;;;;;;;;6246391;22;20448;-81
2023/04/14 11:52:34;;;;;;;4.00;0.95;;;;;;;;;;6274741;22;20007;-81
2023/04/14 11:55:00;;;;;;;2.60;0.85;;;;;;;;;;6273818;22;20362;-79
2023/04/14 11:57:26;;;;;;;3.75;0.98;;;;;;;;;;6266587;22;20008;-81
2023/04/14 11:59:51;;;;;;;3.38;0.93;;;;;;;;;;6272654;22;20003;-81
2023/04/14 12:02:19;;;;;;;4.13;0.88;;;;;;;;;;6273019;22;20090;-81
2023/04/14 12:04:46;;;;;;;2.95;0.70;;;;;;;;;;6272465;22;20015;-80
2023/04/14 12:07:13;;;;;;;5.20;0.93;;;;;;;;;;6270915;22;20060;-80
2023/04/14 12:09:43;;;;;;;3.08;0.90;;;;;;;;;;6270285;22;20031;-80
2023/04/14 12:12:14;;;;;;;3.13;0.70;;;;;;;;;;6273854;22;20010;-76
2023/04/14 12:14:41;;;;;;;3.28;0.80;;;;;;;;;;6276990;22;20305;-76
2023/04/14 12:17:08;;;;;;;1.40;0.80;;;;;;;;;;6276618;22;20012;-77
2023/04/14 12:19:36;;;;;;;3.50;0.90;;;;;;;;;;6273830;22;20014;-77
2023/04/14 12:22:06;;;;;;;2.90;0.70;;;;;;;;;;6269075;22;19999;-77
2023/04/14 12:24:37;;;;;;;3.45;1.05;;;;;;;;;;6261152;22;20015;-78
2023/04/14 12:27:05;;;;;;;3.58;0.90;;;;;;;;;;6265041;22;20014;-77
2023/04/14 12:29:34;;;;;;;3.63;0.95;;;;;;;;;;6266837;22;20015;-76
2023/04/14 12:32:01;;;;;;;3.20;1.02;;;;;;;;;;6266823;22;20008;-77
2023/04/14 12:34:28;;;;;;;3.58;0.98;;;;;;;;;;6263550;22;20008;-77
2023/04/14 12:36:54;;;;;;;3.25;1.00;;;;;;;;;;6269327;22;20004;-76
2023/04/14 12:39:22;;;;;;;4.10;1.00;;;;;;;;;;6264869;22;20014;-76
2023/04/14 12:41:48;;;;;;;3.42;0.82;;;;;;;;;;6267736;22;20011;-77
2023/04/14 12:44:19;;;;;;;2.78;0.93;;;;;;;;;;6264895;22;20033;-77
2023/04/14 12:46:49;;;;;;;4.15;0.90;;;;;;;;;;6268980;22;20035;-76
2023/04/14 12:49:35;;;;;;;3.38;0.90;;;;;;;;;;6268477;22;20520;-76
2023/04/14 12:52:03;;;;;;;4.15;0.90;;;;;;;;;;6268465;22;20012;-77
2023/04/14 12:54:48;;;;;;;2.13;0.80;;;;;;;;;;6267456;22;20004;-77
2023/04/14 12:57:14;;;;;;;2.88;0.82;;;;;;;;;;6267825;22;20003;-77
2023/04/14 12:59:39;;;;;;;3.38;0.93;;;;;;;;;;6267931;22;20009;-77
2023/04/14 13:02:06;;;;;;;2.88;0.70;;;;;;;;;;6265677;22;20079;-76
2023/04/14 13:04:31;;;;;;;5.05;1.00;;;;;;;;;;6269019;22;20014;-76
2023/04/14 13:06:57;;;;;;;3.60;0.80;;;;;;;;;;6269701;22;20401;-77
2023/04/14 13:09:22;;;;;;;3.13;1.02;;;;;;;;;;6269702;22;20007;-76
2023/04/14 13:11:48;;;;;;;2.35;0.82;;;;;;;;;;6267425;22;20035;-76
2023/04/14 13:14:13;;;;;;;2.88;0.85;;;;;;;;;;6265810;22;20369;-77
2023/04/14 13:16:38;;;;;;;3.42;0.80;;;;;;;;;;6269991;22;20007;-76
2023/04/14 13:19:03;;;;;;;3.42;0.85;;;;;;;;;;6266943;22;20440;-76
2023/04/14 13:21:29;;;;;;;3.35;1.00;;;;;;;;;;6267203;22;20422;-77
2023/04/14 13:23:55;;;;;;;4.28;0.88;;;;;;;;;;6267439;22;20008;-76
2023/04/14 13:26:21;;;;;;;2.78;0.98;;;;;;;;;;6268576;22;20007;-76
2023/04/14 13:28:49;;;;;;;2.60;0.82;;;;;;;;;;6275976;22;20030;-77
2023/04/14 13:31:16;;;;;;;3.00;0.93;;;;;;;;;;6279993;22;20031;-77
2023/04/14 13:33:41;;;;;;;2.08;0.70;;;;;;;;;;6302812;22;20007;-77
2023/04/14 13:36:06;;;;;;;3.53;0.93;;;;;;;;;;6300740;22;20000;-78
2023/04/14 13:38:32;;;;;;;2.72;0.80;;;;;;;;;;6297678;22;20059;-77
2023/04/14 13:40:57;;;;;;;3.40;0.90;;;;;;;;;;6297927;22;20041;-77
2023/04/14 13:43:23;;;;;;;2.25;0.80;;;;;;;;;;6302964;22;20372;-78
2023/04/14 13:45:49;;;;;;;2.40;0.80;;;;;;;;;;6302128;22;20012;-77
2023/04/14 13:48:14;;;;;;;4.03;1.00;;;;;;;;;;6301827;22;19992;-78
2023/04/14 13:50:39;;;;;;;2.17;0.82;;;;;;;;;;6300216;22;20008;-77
2023/04/14 13:53:05;;;;;;;1.88;0.73;;;;;;;;;;6301221;22;20027;-78
2023/04/14 13:55:31;;;;;;;4.40;0.80;;;;;;;;;;6301600;22;20006;-78
2023/04/14 13:57:56;;;;;;;4.22;1.02;;;;;;;;;;6302578;22;19994;-77
2023/04/14 14:00:21;;;;;;;3.50;0.93;;;;;;;;;;6303954;22;20006;-78
2023/04/14 14:02:47;;;;;;;4.07;1.25;;;;;;;;;;6302385;22;19999;-78
2023/04/14 14:05:14;;;;;;;5.28;1.05;;;;;;;;;;6303416;22;20042;-77
2023/04/14 14:07:40;;;;;;;1.92;0.70;;;;;;;;;;6300761;22;20000;-78
2023/04/14 14:10:08;;;;;;;3.85;0.90;;;;;;;;;;6302930;22;20027;-78
2023/04/14 14:12:33;;;;;;;1.98;0.88;;;;;;;;;;6302253;22;20039;-78
2023/04/14 14:14:59;;;;;;;2.13;0.60;;;;;;;;;;6302269;22;20022;-78
2023/04/14 14:17:24;;;;;;;3.63;1.10;;;;;;;;;;6302277;22;20007;-78
2023/04/14 14:19:50;;;;;;;1.55;0.65;;;;;;;;;;6304522;22;20004;-77
2023/04/14 14:22:15;;;;;;;3.30;0.98;;;;;;;;;;6297922;22;20031;-77
2023/04/14 14:24:41;;;;;;;4.30;1.10;;;;;;;;;;6301735;22;19987;-77
2023/04/14 14:27:07;;;;;;;4.45;0.93;;;;;;;;;;6301929;22;20019;-77
2023/04/14 14:29:33;;;;;;;2.65;0.93;;;;;;;;;;6301668;22;20011;-77
2023/04/14 14:31:59;;;;;;;1.63;0.60;;;;;;;;;;6299575;22;19995;-77
2023/04/14 14:34:24;;;;;;;2.90;1.10;;;;;;;;;;6299855;22;20003;-77
2023/04/14 14:36:50;;;;;;;4.63;1.02;;;;;;;;;;6301423;22;20007;-77
2023/04/14 14:39:15;;;;;;;5.70;0.90;;;;;;;;;;6301916;22;20023;-77
2023/04/14 14:41:40;;;;;;;3.45;0.90;;;;;;;;;;6301064;22;19998;-78
2023/04/14 14:44:06;;;;;;;3.22;0.80;;;;;;;;;;6302270;22;20012;-77
2023/04/14 14:46:32;;;;;;;4.30;0.85;;;;;;;;;;6274659;22;20012;-77